Time;durP1;ratioP1;P1;durP2;ratioP2;P2;SDS_P1;SDS_P2;PMS_P1;PMS_P2;Temp;Humidity;BMP_temperature;BMP_pressure;BME280_temperature;BME280_humidity;BME280_pressure;Samples;Min_cycle;Max_cycle;Signal;HPM_P1;HPM_P2
2022/04/22 00:00:39;;;;;;;18.45;11.07;;;;;;;;;;5054642;28;20163;-41
2022/04/22 00:03:06;;;;;;;15.23;10.20;;;;;;;;;;5056233;28;20111;-40
2022/04/22 00:05:32;;;;;;;15.52;10.25;;;;;;;;;;5056088;28;20372;-38
2022/04/22 00:07:58;;;;;;;17.23;10.73;;;;;;;;;;5056259;28;20036;-39
2022/04/22 00:10:24;;;;;;;19.05;12.57;;;;;;;;;;5056258;28;20021;-44
2022/04/22 00:12:50;;;;;;;19.10;11.88;;;;;;;;;;5056064;28;20037;-43
2022/04/22 00:15:16;;;;;;;16.23;11.35;;;;;;;;;;5056103;28;20483;-43
2022/04/22 00:17:45;;;;;;;19.10;11.27;;;;;;;;;;5056380;28;20036;-41
2022/04/22 00:20:11;;;;;;;17.95;11.55;;;;;;;;;;5056095;28;20040;-41
2022/04/22 00:22:39;;;;;;;18.70;12.52;;;;;;;;;;5055904;28;20464;-39
2022/04/22 00:25:06;;;;;;;17.05;11.60;;;;;;;;;;5055733;28;20055;-43
2022/04/22 00:27:32;;;;;;;19.52;11.85;;;;;;;;;;5056180;28;20480;-40
2022/04/22 00:29:58;;;;;;;17.60;12.38;;;;;;;;;;5054474;28;20029;-37
2022/04/22 00:32:24;;;;;;;23.02;12.07;;;;;;;;;;5055845;28;20064;-43
2022/04/22 00:34:50;;;;;;;28.10;16.08;;;;;;;;;;5055724;28;20025;-41
2022/04/22 00:37:16;;;;;;;18.70;13.30;;;;;;;;;;5053977;28;20397;-42
2022/04/22 00:39:42;;;;;;;20.83;13.00;;;;;;;;;;5055133;28;20080;-42
2022/04/22 00:42:11;;;;;;;20.02;13.32;;;;;;;;;;5055482;28;20036;-41
2022/04/22 00:44:37;;;;;;;20.60;14.15;;;;;;;;;;5055641;28;20025;-40
2022/04/22 00:47:04;;;;;;;23.88;13.85;;;;;;;;;;5055519;28;20037;-41
2022/04/22 00:49:30;;;;;;;20.52;13.40;;;;;;;;;;5055384;28;20233;-40
2022/04/22 00:51:56;;;;;;;22.88;15.30;;;;;;;;;;5055290;28;20024;-40
2022/04/22 00:54:23;;;;;;;20.55;14.18;;;;;;;;;;5055269;28;20104;-38
2022/04/22 00:56:50;;;;;;;21.02;13.68;;;;;;;;;;5055434;28;20108;-41
2022/04/22 00:59:18;;;;;;;22.23;13.32;;;;;;;;;;5055269;28;20040;-38
2022/04/22 01:01:44;;;;;;;18.23;12.65;;;;;;;;;;5055367;28;20033;-42
2022/04/22 01:09:51;;;;;;;21.10;12.43;;;;;;;;;;5055205;28;20103;-40
2022/04/22 01:12:17;;;;;;;22.55;13.23;;;;;;;;;;5055122;28;20032;-41
2022/04/22 01:14:44;;;;;;;19.85;12.80;;;;;;;;;;5055058;28;20021;-41
2022/04/22 01:17:10;;;;;;;23.08;14.40;;;;;;;;;;5054970;28;20025;-41
2022/04/22 01:19:36;;;;;;;22.42;12.95;;;;;;;;;;5054826;28;20067;-36
2022/04/22 01:22:03;;;;;;;18.67;13.32;;;;;;;;;;5055015;28;20033;-41
2022/04/22 01:24:29;;;;;;;20.25;13.30;;;;;;;;;;5054867;28;20091;-46
2022/04/22 01:26:56;;;;;;;19.42;13.43;;;;;;;;;;5054658;28;20028;-42
2022/04/22 01:29:22;;;;;;;20.38;13.50;;;;;;;;;;5054694;28;20496;-42
2022/04/22 01:31:48;;;;;;;18.90;12.25;;;;;;;;;;5054707;28;20029;-37
2022/04/22 01:34:15;;;;;;;24.75;15.32;;;;;;;;;;5054548;28;20025;-42
2022/04/22 01:36:41;;;;;;;20.83;12.57;;;;;;;;;;5054655;28;20063;-40
2022/04/22 01:39:07;;;;;;;19.88;13.40;;;;;;;;;;5054378;28;20499;-37
2022/04/22 01:41:33;;;;;;;18.60;12.55;;;;;;;;;;5054543;28;20473;-41
2022/04/22 01:43:59;;;;;;;20.92;13.45;;;;;;;;;;5054400;28;20025;-41
2022/04/22 01:46:25;;;;;;;22.38;14.70;;;;;;;;;;5054214;28;20033;-40
2022/04/22 01:48:51;;;;;;;20.88;14.57;;;;;;;;;;5054234;28;20037;-42
2022/04/22 01:51:20;;;;;;;19.83;14.27;;;;;;;;;;5053878;28;20084;-41
2022/04/22 01:53:46;;;;;;;23.48;14.18;;;;;;;;;;5053938;28;20052;-42
2022/04/22 01:56:12;;;;;;;23.23;14.95;;;;;;;;;;5054339;28;20064;-42
2022/04/22 01:58:38;;;;;;;21.55;14.82;;;;;;;;;;5054132;28;20036;-43
2022/04/22 02:01:04;;;;;;;23.08;14.20;;;;;;;;;;5054163;28;20461;-40
2022/04/22 02:03:30;;;;;;;21.05;13.93;;;;;;;;;;5054200;28;20059;-41
2022/04/22 02:05:58;;;;;;;24.25;15.02;;;;;;;;;;5054103;28;20075;-43
2022/04/22 02:08:24;;;;;;;23.75;14.02;;;;;;;;;;5054114;28;20024;-40
2022/04/22 02:10:50;;;;;;;25.33;15.18;;;;;;;;;;5054024;28;20051;-42
2022/04/22 02:13:16;;;;;;;27.77;15.70;;;;;;;;;;5053991;28;20013;-42
2022/04/22 02:15:44;;;;;;;23.40;14.38;;;;;;;;;;5053759;28;20071;-42
2022/04/22 02:18:10;;;;;;;23.30;14.57;;;;;;;;;;5053806;28;20021;-42
2022/04/22 02:20:36;;;;;;;23.63;15.05;;;;;;;;;;5053725;28;20112;-42
2022/04/22 02:23:05;;;;;;;23.85;14.77;;;;;;;;;;5053723;28;20021;-42
2022/04/22 02:25:31;;;;;;;22.98;15.15;;;;;;;;;;5053435;28;20036;-40
2022/04/22 02:30:44;;;;;;;24.67;14.95;;;;;;;;;;5053883;28;20044;-42
2022/04/22 02:33:11;;;;;;;22.90;15.23;;;;;;;;;;5053525;28;20112;-41
2022/04/22 02:35:37;;;;;;;23.40;15.23;;;;;;;;;;5053509;28;20021;-36
2022/04/22 02:38:03;;;;;;;24.33;13.75;;;;;;;;;;5053516;28;20039;-42
2022/04/22 02:45:58;;;;;;;23.48;14.52;;;;;;;;;;5053620;28;20044;-43
2022/04/22 02:48:24;;;;;;;23.55;15.48;;;;;;;;;;5053499;28;20025;-40
2022/04/22 02:50:50;;;;;;;27.13;15.68;;;;;;;;;;5053235;28;20031;-44
2022/04/22 02:53:17;;;;;;;22.17;14.77;;;;;;;;;;5053432;28;20036;-57
2022/04/22 02:55:47;;;;;;;24.67;14.60;;;;;;;;;;5053206;28;20017;-48
2022/04/22 02:58:14;;;;;;;24.60;14.70;;;;;;;;;;5053411;28;20029;-49
2022/04/22 03:00:42;;;;;;;20.45;14.27;;;;;;;;;;5053275;28;20028;-47
2022/04/22 03:03:08;;;;;;;24.20;13.75;;;;;;;;;;5054668;28;20028;-48
2022/04/22 03:05:35;;;;;;;24.13;15.57;;;;;;;;;;5059818;28;20024;-45
2022/04/22 03:08:03;;;;;;;23.30;15.35;;;;;;;;;;5059988;28;20124;-50
2022/04/22 03:10:30;;;;;;;22.73;14.85;;;;;;;;;;5059780;28;20047;-35
2022/04/22 03:12:56;;;;;;;22.55;14.98;;;;;;;;;;5059683;28;20021;-41
2022/04/22 03:15:22;;;;;;;23.30;13.60;;;;;;;;;;5059982;28;20025;-35
2022/04/22 03:17:49;;;;;;;22.67;14.73;;;;;;;;;;5059886;28;20070;-35
2022/04/22 03:20:17;;;;;;;24.60;14.80;;;;;;;;;;5059742;28;20025;-39
2022/04/22 03:22:44;;;;;;;23.73;14.70;;;;;;;;;;5059926;28;20027;-52
2022/04/22 03:25:11;;;;;;;22.20;14.15;;;;;;;;;;5059587;28;20041;-45
2022/04/22 03:27:37;;;;;;;22.20;14.77;;;;;;;;;;5059961;28;20037;-41
2022/04/22 03:30:03;;;;;;;24.33;14.35;;;;;;;;;;5059804;28;20025;-43
2022/04/22 03:32:30;;;;;;;21.60;14.10;;;;;;;;;;5059689;28;20025;-57
2022/04/22 03:34:56;;;;;;;22.60;13.05;;;;;;;;;;5059782;28;20049;-44
2022/04/22 03:37:25;;;;;;;24.20;14.13;;;;;;;;;;5059878;28;20153;-40
2022/04/22 03:39:51;;;;;;;23.65;14.70;;;;;;;;;;5059667;28;20058;-36
2022/04/22 03:42:17;;;;;;;19.55;13.13;;;;;;;;;;5058366;28;20067;-39
2022/04/22 03:44:43;;;;;;;26.67;15.55;;;;;;;;;;5059796;28;20396;-36
2022/04/22 03:47:09;;;;;;;31.58;19.50;;;;;;;;;;5059665;28;20028;-36
2022/04/22 03:49:35;;;;;;;32.30;18.45;;;;;;;;;;5059415;28;20063;-35
2022/04/22 03:52:01;;;;;;;65.28;38.83;;;;;;;;;;5059596;28;20481;-36
2022/04/22 03:54:27;;;;;;;35.28;22.45;;;;;;;;;;5059377;28;20025;-38
2022/04/22 03:59:38;;;;;;;31.50;17.95;;;;;;;;;;5059410;28;20036;-39
2022/04/22 04:02:04;;;;;;;40.58;23.83;;;;;;;;;;5059562;28;20035;-35
2022/04/22 04:04:31;;;;;;;20.90;13.95;;;;;;;;;;5059333;28;20100;-35
2022/04/22 04:06:59;;;;;;;34.70;19.52;;;;;;;;;;5059310;28;20052;-37
2022/04/22 04:17:42;;;;;;;22.15;11.32;;;;;;;;;;5056369;28;20048;-41
2022/04/22 04:25:41;;;;;;;21.55;12.40;;;;;;;;;;5056024;28;20401;-36
2022/04/22 04:28:11;;;;;;;14.98;10.55;;;;;;;;;;5056005;28;20049;-37
2022/04/22 04:30:41;;;;;;;15.32;10.18;;;;;;;;;;5055909;28;20024;-36
2022/04/22 04:33:07;;;;;;;22.63;12.70;;;;;;;;;;5056025;28;20502;-41
2022/04/22 04:35:38;;;;;;;21.52;10.55;;;;;;;;;;5056068;28;20185;-39
2022/04/22 04:38:06;;;;;;;20.95;12.40;;;;;;;;;;5054541;28;20025;-35
2022/04/22 04:40:32;;;;;;;26.75;12.60;;;;;;;;;;5055545;28;20416;-38
2022/04/22 04:43:02;;;;;;;24.92;13.27;;;;;;;;;;5054204;28;20029;-36
2022/04/22 04:45:30;;;;;;;23.58;12.45;;;;;;;;;;5055734;28;20447;-36
2022/04/22 04:47:57;;;;;;;31.35;14.75;;;;;;;;;;5055631;28;20037;-37
2022/04/22 04:50:25;;;;;;;25.80;12.65;;;;;;;;;;5055323;28;20037;-38
2022/04/22 04:52:51;;;;;;;24.85;12.15;;;;;;;;;;5055519;28;20029;-35
2022/04/22 04:55:17;;;;;;;24.33;12.18;;;;;;;;;;5055328;28;20052;-36
2022/04/22 04:57:43;;;;;;;29.02;12.57;;;;;;;;;;5055302;28;20052;-40
2022/04/22 05:00:10;;;;;;;24.45;13.63;;;;;;;;;;5055145;28;20079;-37
2022/04/22 05:02:37;;;;;;;32.25;14.68;;;;;;;;;;5055404;28;20039;-36
2022/04/22 05:05:05;;;;;;;32.08;12.25;;;;;;;;;;5055099;28;20556;-35
2022/04/22 05:07:31;;;;;;;21.33;11.20;;;;;;;;;;5055059;28;20079;-35
2022/04/22 05:09:59;;;;;;;18.05;9.95;;;;;;;;;;5055127;28;20025;-35
2022/04/22 05:12:26;;;;;;;15.30;10.05;;;;;;;;;;5054992;28;20040;-35
2022/04/22 05:14:52;;;;;;;19.13;10.20;;;;;;;;;;5055104;28;20371;-36
2022/04/22 05:17:18;;;;;;;18.33;9.73;;;;;;;;;;5054858;28;20021;-38
2022/04/22 05:19:44;;;;;;;24.98;10.82;;;;;;;;;;5055033;28;20422;-35
2022/04/22 05:22:15;;;;;;;27.48;10.98;;;;;;;;;;5054927;28;20021;-36
2022/04/22 05:24:41;;;;;;;23.23;10.15;;;;;;;;;;5054928;28;20495;-36
2022/04/22 05:27:07;;;;;;;13.20;8.43;;;;;;;;;;5054394;28;20045;-39
2022/04/22 05:32:36;;;;;;;12.82;8.27;;;;;;;;;;5054888;28;20040;-36
2022/04/22 05:35:03;;;;;;;13.82;8.10;;;;;;;;;;5054626;28;20414;-37
2022/04/22 05:37:41;;;;;;;15.38;8.30;;;;;;;;;;5054543;28;20023;-36
2022/04/22 05:40:08;;;;;;;10.43;7.03;;;;;;;;;;5054563;28;20041;-37
2022/04/22 05:42:36;;;;;;;13.07;7.22;;;;;;;;;;5054631;28;20025;-37
2022/04/22 05:45:03;;;;;;;12.85;8.13;;;;;;;;;;5054585;28;20021;-39
2022/04/22 05:47:29;;;;;;;19.67;10.50;;;;;;;;;;5053081;28;20037;-37
2022/04/22 05:49:55;;;;;;;14.18;8.00;;;;;;;;;;5054218;28;20075;-37
2022/04/22 05:52:21;;;;;;;12.50;6.47;;;;;;;;;;5054214;28;20479;-37
2022/04/22 05:54:47;;;;;;;15.38;7.20;;;;;;;;;;5054330;28;20488;-36
2022/04/22 05:57:13;;;;;;;9.02;6.32;;;;;;;;;;5054300;28;20487;-37
2022/04/22 05:59:42;;;;;;;13.82;6.90;;;;;;;;;;5054288;28;20047;-37
2022/04/22 06:02:08;;;;;;;10.32;6.30;;;;;;;;;;5053919;28;20431;-36
2022/04/22 06:04:34;;;;;;;11.93;6.50;;;;;;;;;;5054285;28;20024;-37
2022/04/22 06:07:00;;;;;;;11.75;6.38;;;;;;;;;;5054034;28;20082;-36
2022/04/22 06:12:13;;;;;;;11.60;5.85;;;;;;;;;;5053977;28;20611;-35
2022/04/22 06:14:40;;;;;;;8.20;4.93;;;;;;;;;;5053853;28;20473;-36
2022/04/22 06:17:06;;;;;;;15.82;8.45;;;;;;;;;;5054128;28;20021;-36
2022/04/22 06:19:35;;;;;;;9.55;5.93;;;;;;;;;;5053741;28;20074;-40
2022/04/22 06:22:01;;;;;;;12.52;6.05;;;;;;;;;;5054043;28;20047;-37
2022/04/22 06:24:27;;;;;;;10.75;5.95;;;;;;;;;;5053812;28;20028;-35
2022/04/22 06:26:53;;;;;;;9.63;6.25;;;;;;;;;;5053673;28;20441;-39
2022/04/22 06:29:19;;;;;;;10.85;7.05;;;;;;;;;;5053668;28;20033;-40
2022/04/22 06:31:45;;;;;;;12.40;6.35;;;;;;;;;;5053638;28;20568;-37
2022/04/22 06:34:12;;;;;;;12.43;7.40;;;;;;;;;;5053554;28;20029;-42
2022/04/22 06:36:38;;;;;;;21.05;9.50;;;;;;;;;;5053615;28;20021;-41
2022/04/22 06:39:04;;;;;;;15.73;7.78;;;;;;;;;;5052999;28;20025;-37
2022/04/22 06:46:53;;;;;;;13.05;5.82;;;;;;;;;;5053298;28;20040;-37
2022/04/22 06:49:20;;;;;;;6.57;4.68;;;;;;;;;;5053133;28;20052;-40
2022/04/22 06:51:46;;;;;;;9.48;5.00;;;;;;;;;;5053446;28;20040;-40
2022/04/22 06:54:12;;;;;;;12.82;4.78;;;;;;;;;;5053305;28;20514;-38
2022/04/22 06:56:41;;;;;;;7.28;4.40;;;;;;;;;;5053134;28;20457;-38
2022/04/22 06:59:08;;;;;;;8.80;4.70;;;;;;;;;;5053461;28;20063;-40
2022/04/22 07:01:36;;;;;;;7.88;4.65;;;;;;;;;;5053162;28;20590;-43
2022/04/22 07:04:02;;;;;;;8.07;4.43;;;;;;;;;;5053608;28;20381;-41
2022/04/22 07:06:31;;;;;;;6.75;4.22;;;;;;;;;;5053277;28;20079;-42
2022/04/22 07:08:57;;;;;;;9.02;4.32;;;;;;;;;;5053207;28;20044;-39
2022/04/22 07:11:27;;;;;;;9.07;4.95;;;;;;;;;;5053275;28;20515;-41
2022/04/22 07:13:53;;;;;;;6.65;4.10;;;;;;;;;;5053140;28;20521;-43
2022/04/22 07:16:19;;;;;;;9.85;3.80;;;;;;;;;;5053100;28;20415;-39
2022/04/22 07:18:45;;;;;;;9.60;4.93;;;;;;;;;;5053085;28;20029;-38
2022/04/22 07:21:12;;;;;;;6.85;3.97;;;;;;;;;;5053166;28;20056;-37
2022/04/22 07:23:38;;;;;;;10.60;4.57;;;;;;;;;;5053143;28;20040;-39
2022/04/22 07:26:07;;;;;;;9.65;3.88;;;;;;;;;;5053274;28;20461;-37
2022/04/22 07:28:33;;;;;;;11.15;4.20;;;;;;;;;;5053009;28;20045;-40
2022/04/22 07:31:00;;;;;;;6.13;3.90;;;;;;;;;;5053024;28;20029;-38
2022/04/22 07:33:27;;;;;;;8.35;3.60;;;;;;;;;;5053126;28;20116;-39
2022/04/22 07:35:53;;;;;;;9.68;3.35;;;;;;;;;;5053307;28;20477;-38
2022/04/22 07:38:19;;;;;;;6.20;3.38;;;;;;;;;;5052922;28;20036;-39
2022/04/22 07:40:50;;;;;;;9.85;3.38;;;;;;;;;;5053024;28;20099;-41
2022/04/22 07:48:49;;;;;;;7.85;3.90;;;;;;;;;;5053037;28;20059;-40
2022/04/22 07:51:16;;;;;;;8.80;3.35;;;;;;;;;;5055230;28;20120;-39
2022/04/22 07:53:42;;;;;;;7.10;4.38;;;;;;;;;;5056476;28;20508;-47
2022/04/22 07:56:08;;;;;;;8.75;3.78;;;;;;;;;;5056348;28;20021;-38
2022/04/22 07:58:36;;;;;;;6.50;3.50;;;;;;;;;;5056482;28;20402;-38
2022/04/22 08:01:05;;;;;;;7.72;3.53;;;;;;;;;;5056652;28;20100;-41
2022/04/22 08:03:31;;;;;;;5.72;3.45;;;;;;;;;;5056270;28;20025;-38
2022/04/22 08:05:57;;;;;;;9.43;4.18;;;;;;;;;;5056418;28;20053;-43
2022/04/22 08:08:28;;;;;;;8.70;3.92;;;;;;;;;;5056133;28;20040;-42
2022/04/22 08:10:57;;;;;;;5.30;3.88;;;;;;;;;;5055888;28;20017;-48
2022/04/22 08:13:26;;;;;;;11.07;4.60;;;;;;;;;;5054982;28;20052;-48
2022/04/22 08:15:53;;;;;;;7.13;3.90;;;;;;;;;;5055781;28;20095;-47
2022/04/22 08:18:19;;;;;;;9.50;5.03;;;;;;;;;;5055179;28;20154;-44
2022/04/22 08:20:45;;;;;;;7.90;4.20;;;;;;;;;;5055583;28;20420;-46
2022/04/22 08:23:11;;;;;;;9.50;5.35;;;;;;;;;;5055480;28;20052;-47
2022/04/22 08:25:37;;;;;;;9.75;4.93;;;;;;;;;;5052524;28;20071;-43
2022/04/22 08:28:04;;;;;;;9.60;3.83;;;;;;;;;;5055148;28;20029;-44
2022/04/22 08:30:31;;;;;;;9.43;4.32;;;;;;;;;;5055312;28;20025;-42
2022/04/22 08:33:01;;;;;;;8.60;4.53;;;;;;;;;;5052610;28;20358;-47
2022/04/22 08:35:27;;;;;;;6.75;4.03;;;;;;;;;;5054882;28;20033;-45
2022/04/22 08:38:00;;;;;;;10.07;4.80;;;;;;;;;;5055159;28;20021;-41
2022/04/22 08:40:27;;;;;;;19.40;7.85;;;;;;;;;;5054917;28;20056;-43
2022/04/22 08:42:54;;;;;;;11.40;5.22;;;;;;;;;;5054899;28;20025;-43
2022/04/22 08:45:25;;;;;;;9.07;4.30;;;;;;;;;;5055050;28;20108;-44
2022/04/22 08:50:37;;;;;;;9.13;4.20;;;;;;;;;;5052335;28;19924;-41
2022/04/22 08:53:04;;;;;;;11.88;4.38;;;;;;;;;;5053609;28;20041;-39
2022/04/22 08:55:30;;;;;;;11.18;4.32;;;;;;;;;;5054735;28;20381;-45
2022/04/22 08:57:56;;;;;;;7.90;4.63;;;;;;;;;;5052062;28;20014;-39
2022/04/22 09:00:22;;;;;;;8.75;4.95;;;;;;;;;;5054879;28;20017;-39
2022/04/22 09:02:49;;;;;;;10.60;4.70;;;;;;;;;;5054187;28;20017;-39
2022/04/22 09:05:16;;;;;;;11.23;5.85;;;;;;;;;;5054706;28;20019;-44
2022/04/22 09:07:42;;;;;;;7.07;2.97;;;;;;;;;;5054751;28;20550;-43
2022/04/22 09:10:09;;;;;;;6.45;3.72;;;;;;;;;;5055177;28;20032;-45
2022/04/22 09:12:35;;;;;;;11.10;5.05;;;;;;;;;;5055019;28;20107;-40
2022/04/22 09:15:01;;;;;;;7.60;4.22;;;;;;;;;;5054932;28;20029;-44
2022/04/22 09:17:28;;;;;;;14.95;7.47;;;;;;;;;;5055245;28;20112;-42
2022/04/22 09:19:55;;;;;;;13.27;5.20;;;;;;;;;;5054954;28;20491;-43
2022/04/22 09:22:25;;;;;;;11.18;4.75;;;;;;;;;;5054441;28;20040;-47
2022/04/22 09:24:52;;;;;;;19.75;7.63;;;;;;;;;;5052119;28;20029;-41
2022/04/22 09:27:21;;;;;;;11.20;5.75;;;;;;;;;;5054158;28;20484;-45
2022/04/22 09:29:54;;;;;;;9.40;4.88;;;;;;;;;;5054294;28;20051;-41
2022/04/22 09:32:23;;;;;;;8.75;3.70;;;;;;;;;;5053787;28;20028;-45
2022/04/22 09:34:50;;;;;;;12.05;4.40;;;;;;;;;;5054994;28;20020;-43
2022/04/22 09:42:48;;;;;;;11.13;4.22;;;;;;;;;;5054320;28;20048;-44
2022/04/22 09:45:15;;;;;;;12.23;5.20;;;;;;;;;;5053311;28;20508;-43
2022/04/22 09:47:41;;;;;;;11.38;4.70;;;;;;;;;;5054197;28;20491;-44
2022/04/22 09:50:11;;;;;;;12.32;4.32;;;;;;;;;;5054250;28;20045;-46
2022/04/22 09:52:46;;;;;;;9.30;3.72;;;;;;;;;;5053821;28;20586;-44
2022/04/22 09:55:16;;;;;;;9.95;4.47;;;;;;;;;;5051512;28;20480;-44
2022/04/22 09:57:58;;;;;;;7.07;4.18;;;;;;;;;;5053690;28;20032;-46
2022/04/22 10:00:25;;;;;;;9.65;3.92;;;;;;;;;;5053139;28;20024;-45
2022/04/22 10:02:53;;;;;;;11.18;4.43;;;;;;;;;;5053687;28;20017;-46
2022/04/22 10:05:20;;;;;;;11.90;4.25;;;;;;;;;;5053394;28;20017;-45
2022/04/22 10:07:48;;;;;;;8.88;4.30;;;;;;;;;;5054042;28;20041;-47
2022/04/22 10:10:14;;;;;;;9.43;4.78;;;;;;;;;;5054038;28;20024;-46
2022/04/22 10:12:41;;;;;;;11.77;4.18;;;;;;;;;;5053889;28;20028;-43
2022/04/22 10:15:09;;;;;;;7.75;3.65;;;;;;;;;;5054225;28;20493;-44
2022/04/22 10:17:38;;;;;;;11.15;3.55;;;;;;;;;;5053839;28;20100;-50
2022/04/22 10:20:07;;;;;;;7.93;4.40;;;;;;;;;;5053690;28;20032;-46
2022/04/22 10:22:34;;;;;;;10.25;3.38;;;;;;;;;;5053614;28;20032;-40
2022/04/22 10:25:03;;;;;;;7.25;3.45;;;;;;;;;;5053754;28;20145;-45
2022/04/22 10:27:32;;;;;;;6.88;2.78;;;;;;;;;;5053538;28;20036;-41
2022/04/22 10:29:59;;;;;;;15.10;3.20;;;;;;;;;;5053312;28;20021;-46
2022/04/22 10:32:25;;;;;;;6.05;2.80;;;;;;;;;;5053336;28;20029;-48
2022/04/22 10:34:57;;;;;;;6.90;2.85;;;;;;;;;;5053716;28;20135;-47
2022/04/22 10:37:27;;;;;;;8.82;3.53;;;;;;;;;;5053357;28;20043;-43
2022/04/22 10:39:54;;;;;;;6.53;3.35;;;;;;;;;;5053594;28;20025;-46
2022/04/22 10:42:29;;;;;;;10.73;5.40;;;;;;;;;;5053284;28;20074;-48
2022/04/22 10:47:42;;;;;;;5.60;2.67;;;;;;;;;;5050082;28;20047;-44
2022/04/22 10:50:27;;;;;;;7.22;3.53;;;;;;;;;;5053162;28;20052;-44
2022/04/22 10:53:01;;;;;;;14.35;3.20;;;;;;;;;;5052384;28;20028;-45
2022/04/22 10:55:28;;;;;;;8.63;2.90;;;;;;;;;;5052847;28;20025;-44
2022/04/22 10:58:14;;;;;;;10.07;3.08;;;;;;;;;;5052563;28;20074;-45
2022/04/22 11:00:43;;;;;;;5.60;2.78;;;;;;;;;;5051453;28;20049;-43
2022/04/22 11:03:13;;;;;;;4.97;2.53;;;;;;;;;;5049964;28;20053;-44
2022/04/22 11:05:47;;;;;;;7.80;2.83;;;;;;;;;;5052076;28;20025;-40
2022/04/22 11:08:29;;;;;;;6.85;2.47;;;;;;;;;;5052906;28;20095;-44
2022/04/22 11:10:55;;;;;;;10.30;3.03;;;;;;;;;;5053088;28;20040;-43
2022/04/22 11:13:31;;;;;;;12.50;3.20;;;;;;;;;;5053033;28;20029;-44
2022/04/22 11:15:58;;;;;;;6.38;2.92;;;;;;;;;;5053039;28;20031;-46
2022/04/22 11:18:25;;;;;;;23.73;3.15;;;;;;;;;;5053318;28;20445;-45
2022/04/22 11:20:52;;;;;;;11.02;2.80;;;;;;;;;;5053093;28;20029;-44
2022/04/22 11:23:18;;;;;;;14.60;3.03;;;;;;;;;;5053323;28;20083;-46
2022/04/22 11:25:47;;;;;;;13.77;3.47;;;;;;;;;;5056433;28;20017;-47
2022/04/22 11:28:14;;;;;;;10.85;2.55;;;;;;;;;;5056554;28;20028;-42
2022/04/22 11:30:40;;;;;;;16.83;3.25;;;;;;;;;;5056869;28;20025;-44
2022/04/22 11:33:15;;;;;;;26.75;3.53;;;;;;;;;;5056983;28;20033;-45
2022/04/22 11:35:41;;;;;;;12.43;2.70;;;;;;;;;;5056973;28;20040;-44
2022/04/22 11:38:07;;;;;;;10.88;2.92;;;;;;;;;;5057050;28;20065;-45
2022/04/22 11:40:35;;;;;;;12.90;2.47;;;;;;;;;;5056931;28;20052;-45
2022/04/22 11:43:21;;;;;;;10.75;2.63;;;;;;;;;;5056621;28;20033;-46
2022/04/22 11:45:48;;;;;;;17.05;2.80;;;;;;;;;;5040973;28;20025;-44
2022/04/22 11:48:15;;;;;;;13.77;2.95;;;;;;;;;;5024637;28;20044;-50
2022/04/22 11:50:43;;;;;;;13.55;2.80;;;;;;;;;;5024165;28;20032;-44
2022/04/22 11:53:19;;;;;;;16.00;2.78;;;;;;;;;;5024032;28;20635;-42
2022/04/22 11:55:47;;;;;;;12.32;2.53;;;;;;;;;;5024075;28;20017;-48
2022/04/22 11:58:13;;;;;;;14.90;3.17;;;;;;;;;;5023991;28;20033;-42
2022/04/22 12:06:13;;;;;;;14.75;3.05;;;;;;;;;;5025602;28;20067;-46
2022/04/22 12:08:56;;;;;;;8.13;2.38;;;;;;;;;;5023715;28;20039;-47
2022/04/22 12:11:23;;;;;;;9.65;2.75;;;;;;;;;;5023798;28;20029;-52
2022/04/22 12:13:49;;;;;;;6.65;2.55;;;;;;;;;;5023586;28;20029;-41
2022/04/22 12:16:21;;;;;;;7.85;2.80;;;;;;;;;;5024141;28;20025;-47
2022/04/22 12:18:48;;;;;;;12.93;3.13;;;;;;;;;;5023859;28;20408;-48
2022/04/22 12:21:15;;;;;;;16.92;4.18;;;;;;;;;;5023924;28;20410;-51
2022/04/22 12:23:42;;;;;;;12.32;3.40;;;;;;;;;;5023854;28;20025;-50
2022/04/22 12:26:25;;;;;;;7.85;3.13;;;;;;;;;;5023885;28;20030;-47
2022/04/22 12:29:06;;;;;;;11.15;3.03;;;;;;;;;;5023339;28;20049;-50
2022/04/22 12:31:33;;;;;;;14.90;3.10;;;;;;;;;;5023278;28;20060;-45
2022/04/22 12:34:00;;;;;;;8.40;2.42;;;;;;;;;;5023498;28;21182;-53
2022/04/22 12:36:26;;;;;;;11.75;2.72;;;;;;;;;;5023966;28;20136;-42
2022/04/22 12:38:52;;;;;;;9.25;3.33;;;;;;;;;;5023276;28;20458;-43
2022/04/22 12:41:22;;;;;;;14.57;3.10;;;;;;;;;;5023358;28;20453;-48
2022/04/22 12:43:49;;;;;;;6.93;2.67;;;;;;;;;;5024185;28;20033;-42
2022/04/22 12:52:22;;;;;;;11.93;2.80;;;;;;;;;;5023300;28;20111;-47
2022/04/22 12:54:49;;;;;;;10.88;3.28;;;;;;;;;;5021806;28;20457;-43
2022/04/22 12:57:20;;;;;;;16.08;3.22;;;;;;;;;;5023153;28;20389;-43
2022/04/22 12:59:49;;;;;;;12.43;3.05;;;;;;;;;;5022939;28;20021;-41
2022/04/22 13:02:15;;;;;;;14.48;3.50;;;;;;;;;;5022820;28;20430;-47
2022/04/22 13:04:56;;;;;;;11.02;3.72;;;;;;;;;;5021474;28;20036;-47
2022/04/22 13:07:22;;;;;;;;;;;;;;;;;;5023038;28;20037;-45
2022/04/22 13:09:49;;;;;;;7.10;2.65;;;;;;;;;;5022787;28;19917;-45
2022/04/22 13:12:15;;;;;;;15.35;4.10;;;;;;;;;;5022563;28;20477;-46
2022/04/22 13:14:42;;;;;;;18.35;2.65;;;;;;;;;;5022749;28;20025;-42
2022/04/22 13:17:20;;;;;;;6.40;2.83;;;;;;;;;;5022734;28;20065;-46
2022/04/22 13:19:46;;;;;;;12.35;3.15;;;;;;;;;;5023727;28;20021;-48
2022/04/22 13:22:12;;;;;;;11.25;3.10;;;;;;;;;;5022201;28;21122;-41
2022/04/22 13:24:40;;;;;;;5.50;2.25;;;;;;;;;;5022961;28;20491;-39
2022/04/22 13:27:07;;;;;;;15.60;3.65;;;;;;;;;;5025343;28;20020;-39
2022/04/22 13:29:33;;;;;;;24.08;3.42;;;;;;;;;;5022819;28;20034;-41
2022/04/22 13:31:59;;;;;;;17.02;3.67;;;;;;;;;;5023051;28;20034;-39
2022/04/22 13:34:26;;;;;;;24.45;4.43;;;;;;;;;;5022769;28;20134;-39
2022/04/22 13:36:52;;;;;;;35.28;7.43;;;;;;;;;;5023567;28;20028;-39
2022/04/22 13:39:18;;;;;;;28.80;5.88;;;;;;;;;;5023136;28;20039;-38
2022/04/22 13:41:44;;;;;;;25.75;4.85;;;;;;;;;;5023113;28;20327;-39
2022/04/22 13:44:10;;;;;;;34.80;5.78;;;;;;;;;;5022515;28;20059;-39
2022/04/22 13:52:22;;;;;;;13.30;4.88;;;;;;;;;;5046153;28;20539;-40
2022/04/22 13:54:48;;;;;;;;;;;;;;;;;;5048276;28;20058;-39
2022/04/22 13:57:14;;;;;;;23.75;8.05;;;;;;;;;;5047594;28;20685;-39
2022/04/22 13:59:40;;;;;;;15.85;4.55;;;;;;;;;;5046938;28;20056;-40
2022/04/22 14:02:06;;;;;;;21.45;8.82;;;;;;;;;;5047642;28;20395;-38
2022/04/22 14:04:36;;;;;;;9.15;3.72;;;;;;;;;;5047426;28;20493;-38
2022/04/22 14:07:02;;;;;;;9.93;4.65;;;;;;;;;;5046382;28;20028;-39
2022/04/22 14:09:28;;;;;;;6.97;3.30;;;;;;;;;;5047355;28;20044;-39
2022/04/22 14:11:55;;;;;;;8.65;3.95;;;;;;;;;;5046695;28;20061;-39
2022/04/22 14:14:24;;;;;;;16.10;6.85;;;;;;;;;;5047388;28;20024;-37
2022/04/22 14:16:50;;;;;;;9.60;3.70;;;;;;;;;;5047398;28;20408;-39
2022/04/22 14:19:17;;;;;;;12.05;5.13;;;;;;;;;;5047290;28;20032;-41
2022/04/22 14:21:43;;;;;;;10.73;3.25;;;;;;;;;;5045826;28;20048;-39
2022/04/22 14:24:09;;;;;;;8.20;3.70;;;;;;;;;;5046077;28;20738;-39
2022/04/22 14:26:35;;;;;;;7.57;2.80;;;;;;;;;;5047344;28;20032;-42
2022/04/22 14:29:02;;;;;;;10.60;4.00;;;;;;;;;;5030967;28;20049;-39
2022/04/22 14:31:31;;;;;;;13.63;6.47;;;;;;;;;;5021855;28;20017;-40
2022/04/22 14:33:57;;;;;;;10.25;4.78;;;;;;;;;;5023487;28;20355;-37
2022/04/22 14:36:23;;;;;;;17.25;7.18;;;;;;;;;;5021554;28;20308;-40
2022/04/22 14:38:49;;;;;;;16.00;5.63;;;;;;;;;;5021833;28;20374;-39
2022/04/22 14:41:15;;;;;;;15.07;5.10;;;;;;;;;;5021790;28;20025;-40
2022/04/22 14:43:43;;;;;;;10.55;4.15;;;;;;;;;;5021680;28;20047;-39
2022/04/22 14:46:09;;;;;;;8.25;3.38;;;;;;;;;;5022089;28;20017;-38
2022/04/22 14:48:36;;;;;;;28.80;16.15;;;;;;;;;;5021052;28;20053;-39
2022/04/22 14:51:02;;;;;;;32.15;13.55;;;;;;;;;;5021104;28;20024;-43
2022/04/22 14:53:28;;;;;;;23.88;4.93;;;;;;;;;;5021592;28;20039;-40
2022/04/22 14:55:54;;;;;;;12.77;4.60;;;;;;;;;;5021441;28;20143;-39
2022/04/22 14:58:20;;;;;;;20.30;5.88;;;;;;;;;;5021337;28;20031;-45
2022/04/22 15:00:46;;;;;;;30.50;7.05;;;;;;;;;;5021109;28;20033;-39
2022/04/22 15:03:13;;;;;;;36.30;13.65;;;;;;;;;;5021249;28;20626;-38
2022/04/22 15:05:39;;;;;;;45.00;17.23;;;;;;;;;;5022724;28;20029;-39
2022/04/22 15:08:06;;;;;;;18.52;6.85;;;;;;;;;;5033246;28;20076;-38
2022/04/22 15:10:32;;;;;;;39.20;15.43;;;;;;;;;;5033319;28;20028;-39
2022/04/22 15:12:59;;;;;;;59.97;26.90;;;;;;;;;;5033149;28;20029;-39
2022/04/22 15:15:25;;;;;;;46.90;17.42;;;;;;;;;;5032992;28;20381;-43
2022/04/22 15:26:07;;;;;;;96.68;38.15;;;;;;;;;;5051058;28;20040;-42
2022/04/22 15:28:34;;;;;;;116.40;51.70;;;;;;;;;;5052578;28;20040;-41
2022/04/22 15:31:00;;;;;;;107.10;51.47;;;;;;;;;;5052389;28;20025;-39
2022/04/22 15:33:29;;;;;;;89.13;37.70;;;;;;;;;;5052754;28;20027;-40
2022/04/22 15:35:55;;;;;;;105.53;47.00;;;;;;;;;;5052969;28;20389;-43
2022/04/22 15:38:22;;;;;;;99.40;45.50;;;;;;;;;;5052735;28;20059;-39
2022/04/22 15:40:49;;;;;;;90.38;36.75;;;;;;;;;;5052865;28;20022;-43
2022/04/22 15:43:15;;;;;;;96.10;36.78;;;;;;;;;;5052833;28;20032;-42
2022/04/22 15:45:41;;;;;;;94.93;37.45;;;;;;;;;;5052308;28;20083;-44
2022/04/22 15:48:07;;;;;;;91.90;36.10;;;;;;;;;;5052355;28;20039;-47
2022/04/22 15:50:36;;;;;;;65.40;27.30;;;;;;;;;;5052106;28;20094;-41
2022/04/22 15:53:02;;;;;;;69.75;28.85;;;;;;;;;;5052764;28;20050;-39